Time;durP1;ratioP1;P1;durP2;ratioP2;P2;SDS_P1;SDS_P2;PMS_P1;PMS_P2;Temp;Humidity;BMP_temperature;BMP_pressure;BME280_temperature;BME280_humidity;BME280_pressure;Samples;Min_cycle;Max_cycle;Signal;HPM_P1;HPM_P2
2024/01/15 00:00:04;;;;;;;0.87;0.87;;;4.10;79.10;;;;;;5031060;28;20645;-85
2024/01/15 00:02:33;;;;;;;0.73;0.73;;;4.00;79.10;;;;;;5062204;28;20248;-85
2024/01/15 00:05:01;;;;;;;1.63;1.53;;;4.00;79.30;;;;;;5070410;28;20174;-84
2024/01/15 00:07:30;;;;;;;1.10;1.00;;;3.90;79.50;;;;;;5062897;28;20210;-85
2024/01/15 00:09:58;;;;;;;0.70;0.70;;;3.90;79.70;;;;;;5064384;28;20211;-85
2024/01/15 00:12:27;;;;;;;2.00;1.53;;;3.90;79.80;;;;;;5064079;28;20210;-85
2024/01/15 00:14:57;;;;;;;2.20;1.40;;;3.80;80.00;;;;;;5064400;28;20224;-85
2024/01/15 00:17:26;;;;;;;1.43;1.20;;;3.80;80.00;;;;;;5069874;28;20540;-85
2024/01/15 00:19:54;;;;;;;0.90;0.83;;;3.70;80.10;;;;;;5064911;28;20229;-85
2024/01/15 00:22:24;;;;;;;1.83;1.73;;;3.70;80.70;;;;;;5058331;28;20225;-83
2024/01/15 00:24:53;;;;;;;0.97;0.97;;;3.70;80.70;;;;;;5062485;28;20293;-85
2024/01/15 00:27:21;;;;;;;0.80;0.80;;;3.60;80.80;;;;;;5068508;28;20213;-84
2024/01/15 00:29:51;;;;;;;0.70;0.70;;;3.60;81.00;;;;;;5057392;28;20265;-85
2024/01/15 00:32:21;;;;;;;1.17;1.13;;;3.60;81.10;;;;;;5071454;28;20198;-84
2024/01/15 00:34:50;;;;;;;1.77;1.67;;;3.60;81.20;;;;;;5064576;28;20281;-85
2024/01/15 00:37:19;;;;;;;1.13;1.13;;;3.50;81.70;;;;;;5061982;28;20244;-85
2024/01/15 00:39:47;;;;;;;1.07;1.07;;;3.50;81.90;;;;;;5067344;28;20197;-85
2024/01/15 00:42:16;;;;;;;6.03;2.40;;;3.50;81.90;;;;;;5062895;28;20190;-84
2024/01/15 00:44:45;;;;;;;2.07;1.00;;;3.50;82.00;;;;;;5067363;28;20255;-84
2024/01/15 00:47:13;;;;;;;0.80;0.80;;;3.50;82.10;;;;;;5074681;28;20402;-84
2024/01/15 00:49:43;;;;;;;1.27;1.17;;;3.50;82.10;;;;;;5062889;28;20655;-84
2024/01/15 00:52:12;;;;;;;1.60;1.50;;;3.50;82.20;;;;;;5069373;28;20193;-85
2024/01/15 00:54:40;;;;;;;0.90;0.90;;;3.50;82.30;;;;;;5065622;28;20207;-84
2024/01/15 00:57:09;;;;;;;1.07;1.03;;;3.40;82.30;;;;;;5061219;28;20227;-85
2024/01/15 00:59:38;;;;;;;2.33;2.13;;;3.40;82.30;;;;;;5068404;28;20189;-85
2024/01/15 01:02:06;;;;;;;1.97;1.77;;;3.40;82.20;;;;;;5063734;28;20230;-84
2024/01/15 01:04:35;;;;;;;0.90;0.90;;;3.40;82.10;;;;;;5061345;28;20206;-84
2024/01/15 01:07:05;;;;;;;0.93;0.90;;;3.50;82.70;;;;;;5064505;28;20240;-84
2024/01/15 01:09:33;;;;;;;1.33;1.23;;;3.50;81.70;;;;;;5058534;28;20806;-85
2024/01/15 01:12:02;;;;;;;1.13;0.73;;;3.50;81.70;;;;;;5064687;28;20576;-84
2024/01/15 01:14:30;;;;;;;3.10;1.23;;;3.50;81.40;;;;;;5063191;28;20191;-83
2024/01/15 01:16:59;;;;;;;6.83;2.97;;;3.60;81.30;;;;;;5068474;28;20285;-84
2024/01/15 01:19:27;;;;;;;6.50;2.03;;;3.60;81.20;;;;;;5066478;28;20194;-84
2024/01/15 01:21:56;;;;;;;0.87;0.87;;;3.60;81.00;;;;;;5070121;28;20218;-84
2024/01/15 01:24:27;;;;;;;1.27;1.17;;;3.60;80.80;;;;;;5066764;28;20227;-83
2024/01/15 01:26:55;;;;;;;1.33;1.23;;;3.60;80.70;;;;;;5067382;28;20182;-84
2024/01/15 01:29:24;;;;;;;0.70;0.70;;;3.60;80.60;;;;;;5064327;28;20207;-84
2024/01/15 01:31:52;;;;;;;1.47;1.37;;;3.60;80.50;;;;;;5065104;28;20233;-84
2024/01/15 01:34:20;;;;;;;2.50;2.30;;;3.60;80.40;;;;;;5062443;28;20202;-84
2024/01/15 01:36:49;;;;;;;1.47;1.37;;;3.60;80.30;;;;;;5070330;28;20228;-84
2024/01/15 01:39:18;;;;;;;2.20;2.00;;;3.60;80.20;;;;;;5062631;28;20240;-84
2024/01/15 01:41:48;;;;;;;1.80;1.70;;;3.60;80.10;;;;;;5063812;28;20257;-83
2024/01/15 01:44:16;;;;;;;0.73;0.73;;;3.60;80.10;;;;;;5063560;28;20199;-84
2024/01/15 01:46:45;;;;;;;6.40;1.53;;;3.70;80.10;;;;;;5067328;28;20206;-84
2024/01/15 01:49:14;;;;;;;1.00;1.00;;;3.60;80.00;;;;;;5066563;28;20215;-85
2024/01/15 01:51:42;;;;;;;0.70;0.70;;;3.60;79.80;;;;;;5070806;28;20198;-84
2024/01/15 01:54:14;;;;;;;2.87;1.90;;;3.60;79.90;;;;;;5066043;28;20210;-85
2024/01/15 01:56:43;;;;;;;5.10;1.63;;;3.60;79.80;;;;;;5069486;28;20202;-85
2024/01/15 01:59:13;;;;;;;1.10;1.07;;;3.60;79.90;;;;;;5060927;28;20207;-86
2024/01/15 02:01:42;;;;;;;1.17;1.07;;;3.50;79.90;;;;;;5064808;28;20225;-85
2024/01/15 02:04:12;;;;;;;3.40;1.70;;;3.50;79.90;;;;;;5066200;28;20264;-84
2024/01/15 02:06:41;;;;;;;1.60;1.50;;;3.50;79.80;;;;;;5065372;28;20277;-85
2024/01/15 02:09:09;;;;;;;0.53;0.53;;;3.50;79.80;;;;;;5060603;28;20272;-85
2024/01/15 02:11:38;;;;;;;0.80;0.80;;;3.50;79.90;;;;;;5060155;28;20218;-83
2024/01/15 02:14:06;;;;;;;4.57;2.63;;;3.50;79.80;;;;;;5065504;28;20201;-85
2024/01/15 02:16:36;;;;;;;0.83;0.83;;;3.40;79.70;;;;;;5069041;28;20214;-85
2024/01/15 02:19:05;;;;;;;1.13;1.10;;;3.40;79.70;;;;;;5068381;28;20549;-83
2024/01/15 02:21:34;;;;;;;0.77;0.77;;;3.40;79.60;;;;;;5068488;28;20227;-85
2024/01/15 02:24:04;;;;;;;0.83;0.83;;;3.40;79.50;;;;;;5060591;28;20199;-85
2024/01/15 02:26:35;;;;;;;1.17;1.07;;;3.40;79.30;;;;;;5065554;28;20850;-85
2024/01/15 02:29:06;;;;;;;1.23;1.13;;;3.40;79.30;;;;;;5072542;28;20242;-84
2024/01/15 02:31:34;;;;;;;0.90;0.90;;;3.50;79.20;;;;;;5068990;28;20198;-84
2024/01/15 02:34:03;;;;;;;0.77;0.77;;;3.50;79.10;;;;;;5060044;28;20201;-84
2024/01/15 02:36:32;;;;;;;1.17;1.10;;;3.40;78.90;;;;;;5068583;28;20669;-85
2024/01/15 02:39:00;;;;;;;1.33;1.23;;;3.40;78.90;;;;;;5066301;28;20190;-84
2024/01/15 02:41:30;;;;;;;0.90;0.90;;;3.40;78.90;;;;;;5069500;28;20687;-84
2024/01/15 02:43:59;;;;;;;1.73;1.63;;;3.40;78.90;;;;;;5070590;28;20205;-84
2024/01/15 02:46:27;;;;;;;1.40;1.30;;;3.40;78.90;;;;;;5067480;28;20206;-85
2024/01/15 02:48:55;;;;;;;0.70;0.70;;;3.40;78.80;;;;;;5063903;28;20202;-84
2024/01/15 02:51:24;;;;;;;0.90;0.90;;;3.40;78.90;;;;;;5061709;28;20199;-85
2024/01/15 02:53:53;;;;;;;1.37;1.27;;;3.40;78.80;;;;;;5066642;28;20213;-84
2024/01/15 02:56:22;;;;;;;0.40;0.40;;;3.40;78.70;;;;;;5059957;28;20249;-84
2024/01/15 02:58:52;;;;;;;1.23;1.17;;;3.30;78.60;;;;;;5065206;28;20205;-84
2024/01/15 03:01:23;;;;;;;0.90;0.90;;;3.40;78.60;;;;;;5067729;28;20294;-84
2024/01/15 03:03:51;;;;;;;1.97;1.40;;;3.40;78.60;;;;;;5064855;28;20226;-85
2024/01/15 03:06:20;;;;;;;3.50;1.50;;;3.40;78.60;;;;;;5069495;28;20198;-84
2024/01/15 03:08:48;;;;;;;1.43;1.30;;;3.40;78.50;;;;;;5066225;28;20209;-84
2024/01/15 03:11:17;;;;;;;1.50;1.47;;;3.40;78.50;;;;;;5066701;28;20698;-85
2024/01/15 03:13:45;;;;;;;1.43;1.33;;;3.30;78.30;;;;;;5067758;28;20221;-84
2024/01/15 03:16:15;;;;;;;1.23;1.17;;;3.40;78.30;;;;;;5068615;28;20186;-83
2024/01/15 03:18:44;;;;;;;1.20;1.10;;;3.30;78.20;;;;;;5066883;28;20289;-85
2024/01/15 03:21:12;;;;;;;1.20;1.20;;;3.30;78.20;;;;;;5068021;28;20228;-84
2024/01/15 03:23:41;;;;;;;2.27;1.33;;;3.30;78.20;;;;;;5063320;28;20198;-83
2024/01/15 03:26:09;;;;;;;1.13;1.13;;;3.40;78.20;;;;;;5067931;28;20190;-85
2024/01/15 03:28:38;;;;;;;1.33;1.23;;;3.30;78.10;;;;;;5068267;28;20210;-84
2024/01/15 03:31:06;;;;;;;0.80;0.80;;;3.40;78.10;;;;;;5063965;28;20171;-83
2024/01/15 03:33:37;;;;;;;0.90;0.90;;;3.40;78.00;;;;;;5069240;28;20194;-84
2024/01/15 03:38:48;;;;;;;2.77;1.47;;;3.40;78.00;;;;;;5065788;28;20279;-84
2024/01/15 03:43:59;;;;;;;5.50;2.13;;;3.50;77.90;;;;;;5063046;28;20205;-82
2024/01/15 03:46:27;;;;;;;9.30;1.47;;;3.50;78.00;;;;;;5067349;28;20199;-82
2024/01/15 03:49:12;;;;;;;1.17;0.83;;;3.50;77.90;;;;;;5059718;28;20201;-84
2024/01/15 03:54:37;;;;;;;1.33;1.27;;;3.60;77.90;;;;;;5065606;28;20725;-83
2024/01/15 03:57:19;;;;;;;0.83;0.83;;;3.60;77.70;;;;;;5066164;28;20248;-82
2024/01/15 03:59:48;;;;;;;2.20;1.77;;;3.70;77.70;;;;;;5071846;28;20202;-85
2024/01/15 04:02:17;;;;;;;0.70;0.70;;;3.80;77.70;;;;;;5063484;28;20229;-84
2024/01/15 04:04:46;;;;;;;1.13;1.07;;;3.80;77.70;;;;;;5064349;28;20201;-83
2024/01/15 04:07:15;;;;;;;2.93;2.30;;;3.90;77.60;;;;;;5072934;28;20190;-84
2024/01/15 04:09:44;;;;;;;1.00;0.90;;;3.90;77.50;;;;;;5063034;28;20390;-83
2024/01/15 04:12:12;;;;;;;0.60;0.60;;;3.90;77.40;;;;;;5060394;28;20222;-84
2024/01/15 04:14:41;;;;;;;1.07;1.07;;;3.90;77.20;;;;;;5068333;28;20195;-83
2024/01/15 04:17:09;;;;;;;1.17;1.13;;;3.90;76.80;;;;;;5069460;28;20587;-84
2024/01/15 04:19:38;;;;;;;2.80;1.13;;;3.90;76.80;;;;;;5062287;28;20256;-83
2024/01/15 04:22:23;;;;;;;0.93;0.93;;;3.90;76.80;;;;;;5066718;28;20218;-84
2024/01/15 04:24:51;;;;;;;0.83;0.83;;;3.90;76.70;;;;;;5067215;28;20856;-83
2024/01/15 04:27:20;;;;;;;0.47;0.47;;;3.90;76.80;;;;;;5070635;28;20206;-83
2024/01/15 04:29:48;;;;;;;1.53;1.43;;;3.90;76.80;;;;;;5065672;28;20198;-82
2024/01/15 04:32:17;;;;;;;2.07;1.97;;;3.90;76.70;;;;;;5062310;28;20205;-82
2024/01/15 04:34:46;;;;;;;1.03;1.03;;;3.90;76.60;;;;;;5064086;28;20273;-83
2024/01/15 04:37:15;;;;;;;1.10;0.80;;;3.90;76.50;;;;;;5067489;28;20675;-81
2024/01/15 04:39:45;;;;;;;0.90;0.90;;;3.90;76.40;;;;;;5067087;28;20712;-80
2024/01/15 04:42:14;;;;;;;0.70;0.70;;;3.90;76.50;;;;;;5064028;28;20300;-81
2024/01/15 04:44:42;;;;;;;1.20;1.20;;;3.90;76.50;;;;;;5066428;28;20250;-80
2024/01/15 04:47:10;;;;;;;1.70;1.00;;;3.90;76.40;;;;;;5071256;28;20186;-82
2024/01/15 04:49:39;;;;;;;1.13;1.03;;;3.90;76.30;;;;;;5067267;28;20204;-81
2024/01/15 04:52:10;;;;;;;0.97;0.97;;;3.90;76.30;;;;;;5064345;28;20687;-83
2024/01/15 04:54:38;;;;;;;1.70;1.10;;;3.90;76.20;;;;;;5068105;28;20293;-83
2024/01/15 04:57:08;;;;;;;0.90;0.90;;;3.90;76.20;;;;;;5069366;28;20201;-83
2024/01/15 04:59:37;;;;;;;3.33;1.00;;;3.90;76.20;;;;;;5063601;28;20201;-83
2024/01/15 05:02:05;;;;;;;0.60;0.60;;;3.90;76.10;;;;;;5067518;28;20221;-79
2024/01/15 05:04:34;;;;;;;1.20;1.20;;;3.90;76.10;;;;;;5062503;28;20201;-81
2024/01/15 05:07:03;;;;;;;0.90;0.90;;;3.90;76.00;;;;;;5063441;28;20197;-80
2024/01/15 05:09:31;;;;;;;3.93;1.83;;;3.90;76.00;;;;;;5056996;28;20648;-79
2024/01/15 05:12:03;;;;;;;1.57;1.47;;;3.80;75.90;;;;;;5057074;28;20202;-80
2024/01/15 05:14:32;;;;;;;1.47;1.37;;;3.80;76.00;;;;;;5066478;28;20190;-80
2024/01/15 05:17:01;;;;;;;2.20;1.87;;;3.80;76.00;;;;;;5067844;28;20541;-79
2024/01/15 05:19:30;;;;;;;2.03;1.60;;;3.80;76.00;;;;;;5068946;28;20205;-80
2024/01/15 05:21:58;;;;;;;1.20;0.83;;;3.80;76.10;;;;;;5067964;28;20214;-79
2024/01/15 05:24:27;;;;;;;1.10;1.03;;;3.80;76.10;;;;;;5064570;28;20214;-79
2024/01/15 05:26:55;;;;;;;0.70;0.70;;;3.80;76.10;;;;;;5067342;28;20195;-79
2024/01/15 05:29:24;;;;;;;0.60;0.60;;;3.80;76.10;;;;;;5066555;28;20202;-81
2024/01/15 05:31:54;;;;;;;0.90;0.90;;;3.80;76.10;;;;;;5065387;28;20221;-79
2024/01/15 05:34:27;;;;;;;0.60;0.57;;;3.80;76.10;;;;;;5066371;28;20194;-80
2024/01/15 05:36:58;;;;;;;1.77;1.63;;;3.80;76.00;;;;;;5068606;28;20247;-80
2024/01/15 05:39:27;;;;;;;1.67;1.33;;;3.80;75.90;;;;;;5062780;28;20701;-79
2024/01/15 05:41:55;;;;;;;0.83;0.83;;;3.80;76.00;;;;;;5064471;28;20203;-81
2024/01/15 05:44:26;;;;;;;2.33;1.90;;;3.80;75.90;;;;;;5060060;28;20698;-80
2024/01/15 05:46:56;;;;;;;2.27;1.13;;;3.80;75.90;;;;;;5062113;28;20234;-82
2024/01/15 05:49:25;;;;;;;2.73;2.53;;;3.80;75.90;;;;;;5069566;28;20199;-80
2024/01/15 05:51:53;;;;;;;4.47;2.10;;;3.80;75.90;;;;;;5064259;28;20281;-83
2024/01/15 05:54:22;;;;;;;1.13;1.03;;;3.80;75.90;;;;;;5069430;28;20213;-81
2024/01/15 05:56:50;;;;;;;1.57;1.47;;;3.80;76.00;;;;;;5066146;28;20519;-80
2024/01/15 06:02:16;;;;;;;0.70;0.70;;;3.80;75.90;;;;;;5070951;28;20280;-80
2024/01/15 06:04:45;;;;;;;2.50;1.57;;;3.90;75.90;;;;;;5072173;28;20297;-81
2024/01/15 06:07:14;;;;;;;1.93;1.80;;;3.90;75.90;;;;;;5071658;28;20202;-81
2024/01/15 06:09:42;;;;;;;0.93;0.90;;;3.90;75.90;;;;;;5071038;28;20247;-81
2024/01/15 06:12:11;;;;;;;1.17;1.10;;;3.90;75.90;;;;;;5072322;28;20205;-81
2024/01/15 06:14:41;;;;;;;1.00;1.00;;;4.00;75.90;;;;;;5075210;28;20731;-81
2024/01/15 06:17:09;;;;;;;2.13;1.93;;;4.00;75.90;;;;;;5066778;28;20214;-81
2024/01/15 06:19:39;;;;;;;2.37;2.17;;;4.00;75.90;;;;;;5072798;28;20248;-81
2024/01/15 06:22:07;;;;;;;1.47;1.37;;;3.90;75.80;;;;;;5071287;28;20478;-82
2024/01/15 06:24:36;;;;;;;3.60;1.90;;;3.90;75.90;;;;;;5069802;28;20226;-82
2024/01/15 06:27:05;;;;;;;1.00;1.00;;;3.90;76.80;;;;;;5070713;28;20608;-81
2024/01/15 06:29:33;;;;;;;2.30;2.17;;;3.90;75.90;;;;;;5068030;28;20460;-82
2024/01/15 06:32:02;;;;;;;3.83;2.40;;;3.90;76.00;;;;;;5070589;28;20198;-81
2024/01/15 06:34:30;;;;;;;6.50;2.37;;;3.90;76.10;;;;;;5070104;28;20207;-82
2024/01/15 06:37:00;;;;;;;2.07;1.97;;;4.00;76.20;;;;;;5069549;28;20926;-82
2024/01/15 06:39:29;;;;;;;1.67;1.57;;;4.00;76.20;;;;;;5072412;28;20198;-82
2024/01/15 06:41:58;;;;;;;5.60;2.90;;;4.00;76.20;;;;;;5069984;28;20194;-82
2024/01/15 06:44:26;;;;;;;1.87;1.73;;;4.00;76.10;;;;;;5071908;28;20223;-82
2024/01/15 06:46:57;;;;;;;3.53;2.37;;;4.00;76.10;;;;;;5072813;28;20198;-81
2024/01/15 06:49:25;;;;;;;1.27;1.27;;;4.00;76.10;;;;;;5072973;28;20202;-83
2024/01/15 06:51:54;;;;;;;4.67;2.20;;;4.10;76.30;;;;;;5064427;28;20191;-82
2024/01/15 06:54:26;;;;;;;6.20;2.17;;;4.20;76.30;;;;;;5073476;28;20201;-81
2024/01/15 06:56:55;;;;;;;1.80;1.43;;;4.20;76.30;;;;;;5074472;28;20206;-83
2024/01/15 06:59:23;;;;;;;6.00;1.90;;;4.30;76.30;;;;;;5077860;28;20205;-82
2024/01/15 07:01:52;;;;;;;2.20;1.87;;;4.30;76.30;;;;;;5068318;28;20222;-81
2024/01/15 07:04:21;;;;;;;0.90;0.90;;;4.40;76.20;;;;;;5071373;28;20245;-82
2024/01/15 07:06:49;;;;;;;3.50;2.87;;;4.40;76.10;;;;;;5063399;28;20195;-82
2024/01/15 07:09:18;;;;;;;6.80;2.77;;;4.50;76.10;;;;;;5064244;28;20217;-82
2024/01/15 07:11:48;;;;;;;11.03;2.97;;;4.60;76.10;;;;;;5075834;28;20280;-82
2024/01/15 07:14:16;;;;;;;3.23;1.73;;;4.60;76.10;;;;;;5068857;28;20202;-82
2024/01/15 07:16:45;;;;;;;2.83;2.30;;;4.70;76.00;;;;;;5075077;28;20547;-85
2024/01/15 07:19:16;;;;;;;9.80;4.80;;;4.70;75.40;;;;;;5072281;28;20198;-84
2024/01/15 07:21:45;;;;;;;10.67;2.30;;;4.70;75.40;;;;;;5068169;28;20191;-82
2024/01/15 07:24:13;;;;;;;5.47;2.83;;;4.80;76.40;;;;;;5063079;28;20614;-82
2024/01/15 07:26:42;;;;;;;4.33;3.60;;;4.80;75.70;;;;;;5069382;28;20194;-82
2024/01/15 07:29:12;;;;;;;1.83;1.73;;;4.90;75.30;;;;;;5062749;28;20202;-82
2024/01/15 07:31:41;;;;;;;4.10;2.73;;;5.00;75.60;;;;;;5068331;28;20199;-83
2024/01/15 07:34:09;;;;;;;15.77;3.37;;;5.00;74.90;;;;;;5067405;28;20219;-83
2024/01/15 07:36:38;;;;;;;2.70;2.47;;;5.00;74.80;;;;;;5072629;28;20205;-80
2024/01/15 07:39:07;;;;;;;9.10;2.73;;;5.10;74.70;;;;;;5061509;28;20204;-80
2024/01/15 07:41:35;;;;;;;1.20;1.10;;;5.10;74.60;;;;;;5072671;28;20202;-80
2024/01/15 07:44:04;;;;;;;5.80;1.23;;;5.20;74.30;;;;;;5067739;28;20218;-81
2024/01/15 07:46:34;;;;;;;2.03;1.93;;;5.20;73.90;;;;;;5067459;28;20199;-80
2024/01/15 07:49:03;;;;;;;1.70;1.60;;;5.20;74.10;;;;;;5072428;28;20198;-81
2024/01/15 07:51:32;;;;;;;4.33;2.90;;;5.20;73.80;;;;;;5062898;28;20236;-81
2024/01/15 07:54:00;;;;;;;2.47;2.27;;;5.30;74.00;;;;;;5068204;28;20208;-82
2024/01/15 07:56:29;;;;;;;4.47;2.90;;;5.30;73.60;;;;;;5064182;28;20203;-80
2024/01/15 07:59:18;;;;;;;1.20;1.20;;;5.40;74.70;;;;;;5065130;28;20252;-82
2024/01/15 08:02:02;;;;;;;2.47;2.27;;;5.50;73.90;;;;;;5061709;28;20450;-85
2024/01/15 08:04:45;;;;;;;5.73;2.87;;;5.50;73.60;;;;;;5069659;28;20689;-84
2024/01/15 08:07:14;;;;;;;2.00;1.80;;;5.50;73.70;;;;;;5063254;28;20202;-87
2024/01/15 08:09:43;;;;;;;0.60;0.60;;;5.60;74.00;;;;;;5064044;28;20263;-86
2024/01/15 08:12:25;;;;;;;2.63;2.43;;;5.70;74.10;;;;;;5066299;28;20199;-85
2024/01/15 08:14:54;;;;;;;6.93;3.17;;;5.80;74.10;;;;;;5071058;28;20216;-85
2024/01/15 08:17:28;;;;;;;2.43;2.23;;;5.90;73.70;;;;;;5061803;28;20293;-84
2024/01/15 08:19:57;;;;;;;4.73;3.77;;;5.90;73.80;;;;;;5063773;28;20220;-84
2024/01/15 08:22:25;;;;;;;1.87;1.77;;;6.00;73.70;;;;;;5058656;28;20253;-84
2024/01/15 08:24:56;;;;;;;7.17;2.20;;;6.10;73.50;;;;;;5063423;28;20215;-85
2024/01/15 08:27:25;;;;;;;6.47;2.70;;;6.20;73.20;;;;;;5067382;28;20275;-86
2024/01/15 08:29:53;;;;;;;1.37;1.27;;;6.20;73.50;;;;;;5063947;28;20235;-84
2024/01/15 08:32:22;;;;;;;3.57;2.03;;;6.30;73.30;;;;;;5065547;28;20241;-84
2024/01/15 08:34:52;;;;;;;1.93;1.83;;;6.40;73.30;;;;;;5064020;28;20339;-82
2024/01/15 08:37:21;;;;;;;3.50;2.80;;;6.50;73.30;;;;;;5065779;28;20207;-80
2024/01/15 08:39:49;;;;;;;1.43;1.27;;;6.60;72.50;;;;;;5060475;28;20205;-81
2024/01/15 08:42:19;;;;;;;4.00;2.20;;;6.60;71.90;;;;;;5064181;28;20955;-81
2024/01/15 08:44:48;;;;;;;3.03;1.97;;;6.70;71.90;;;;;;5065426;28;20245;-80
2024/01/15 08:47:16;;;;;;;2.93;1.67;;;6.80;72.00;;;;;;5062190;28;20233;-80
2024/01/15 08:49:46;;;;;;;1.70;1.53;;;6.80;72.20;;;;;;5063324;28;20211;-81
2024/01/15 08:52:23;;;;;;;4.87;2.57;;;6.90;71.90;;;;;;5067927;28;20194;-81
2024/01/15 08:54:52;;;;;;;4.70;2.50;;;7.00;70.80;;;;;;5063893;28;20236;-81
2024/01/15 08:57:21;;;;;;;1.60;1.50;;;7.00;70.30;;;;;;5064923;28;20263;-83
2024/01/15 08:59:51;;;;;;;2.70;2.50;;;7.10;70.30;;;;;;5067265;28;20194;-80
2024/01/15 09:05:16;;;;;;;1.43;1.33;;;7.20;70.10;;;;;;5059574;28;20218;-82
2024/01/15 09:07:46;;;;;;;1.50;1.40;;;7.30;69.90;;;;;;5062669;28;20201;-81
2024/01/15 09:10:16;;;;;;;1.67;1.57;;;7.40;69.70;;;;;;5058168;28;20652;-81
2024/01/15 09:12:44;;;;;;;4.30;2.53;;;7.40;69.40;;;;;;5057910;28;20225;-81
2024/01/15 09:15:13;;;;;;;1.00;1.00;;;7.50;69.20;;;;;;5066208;28;20198;-85
2024/01/15 09:17:42;;;;;;;2.03;1.50;;;7.60;68.70;;;;;;5065678;28;20190;-85
2024/01/15 09:20:11;;;;;;;2.27;1.00;;;7.60;67.80;;;;;;5068215;28;20214;-83
2024/01/15 09:22:41;;;;;;;2.17;2.00;;;7.70;68.40;;;;;;5063928;28;20247;-85
2024/01/15 09:28:08;;;;;;;1.60;1.50;;;7.90;68.80;;;;;;5065355;28;20205;-84
2024/01/15 09:30:36;;;;;;;5.13;1.63;;;8.10;69.20;;;;;;5068103;28;20194;-85
2024/01/15 09:33:07;;;;;;;2.00;1.17;;;8.20;68.60;;;;;;5070370;28;20201;-84
2024/01/15 09:35:49;;;;;;;2.47;1.43;;;8.20;67.10;;;;;;5058564;28;20213;-84
2024/01/15 09:41:15;;;;;;;4.27;1.73;;;8.40;66.90;;;;;;5069686;28;20582;-83
2024/01/15 09:43:44;;;;;;;1.50;1.25;;;8.50;67.60;;;;;;5073106;28;20439;-84
2024/01/15 09:48:55;;;;;;;5.43;0.90;;;8.70;66.30;;;;;;5066481;28;20194;-85
2024/01/15 09:51:25;;;;;;;5.33;1.03;;;8.80;66.50;;;;;;5065798;28;20202;-85
2024/01/15 09:53:56;;;;;;;4.83;1.57;;;8.80;65.00;;;;;;5068098;28;20202;-85
2024/01/15 09:56:26;;;;;;;0.77;0.77;;;8.90;64.10;;;;;;5065882;28;20213;-85
2024/01/15 09:58:54;;;;;;;2.47;1.57;;;9.00;64.20;;;;;;5072629;28;20201;-85
2024/01/15 10:01:24;;;;;;;3.57;1.77;;;9.10;64.80;;;;;;5068614;28;21803;-85
2024/01/15 10:04:06;;;;;;;1.20;1.10;;;9.20;64.00;;;;;;5062441;28;20203;-84
2024/01/15 10:06:51;;;;;;;3.80;1.77;;;9.30;63.60;;;;;;5061748;28;20249;-82
2024/01/15 10:09:20;;;;;;;5.33;1.57;;;9.40;63.60;;;;;;5061262;28;20213;-83
2024/01/15 10:14:32;;;;;;;1.03;0.97;;;9.50;62.50;;;;;;5057694;28;20202;-82
2024/01/15 10:17:01;;;;;;;4.20;1.33;;;9.60;61.80;;;;;;5066101;28;20287;-82
2024/01/15 10:19:32;;;;;;;3.63;1.67;;;9.60;61.70;;;;;;5059149;28;20197;-83
2024/01/15 10:22:01;;;;;;;1.60;1.37;;;9.60;61.30;;;;;;5066002;28;20690;-84
2024/01/15 10:27:27;;;;;;;0.50;0.50;;;9.60;60.80;;;;;;5062704;28;20206;-84
2024/01/15 10:30:00;;;;;;;0.60;0.60;;;9.70;61.20;;;;;;5066656;28;20233;-85
2024/01/15 10:35:13;;;;;;;0.60;0.60;;;9.70;60.20;;;;;;5057852;28;20206;-85
2024/01/15 10:37:43;;;;;;;1.07;1.03;;;9.80;60.60;;;;;;5057678;28;20459;-86
2024/01/15 10:40:14;;;;;;;1.60;1.30;;;9.90;61.30;;;;;;5074584;28;20234;-86
2024/01/15 10:42:44;;;;;;;0.70;0.70;;;10.00;60.70;;;;;;5071995;28;20256;-86
2024/01/15 10:45:13;;;;;;;1.93;1.00;;;10.00;59.60;;;;;;5069495;28;20214;-86
2024/01/15 10:47:42;;;;;;;1.03;0.97;;;10.00;59.50;;;;;;5067058;28;20210;-86
2024/01/15 10:50:11;;;;;;;1.40;1.27;;;10.10;59.80;;;;;;5071459;28;20664;-81
2024/01/15 10:52:41;;;;;;;1.10;1.00;;;10.20;59.70;;;;;;5061683;28;21342;-83
2024/01/15 10:55:11;;;;;;;4.80;1.77;;;10.30;60.20;;;;;;5068320;28;20186;-81
2024/01/15 10:57:50;;;;;;;0.47;0.47;;;10.30;59.60;;;;;;5065284;28;20204;-82
2024/01/15 11:00:19;;;;;;;0.30;0.30;;;10.40;59.30;;;;;;5072351;28;20510;-84
2024/01/15 11:02:47;;;;;;;1.80;1.23;;;10.50;59.60;;;;;;5065280;28;20580;-84
2024/01/15 11:05:22;;;;;;;0.50;0.50;;;10.50;59.80;;;;;;5068522;28;20289;-82
2024/01/15 11:07:50;;;;;;;0.93;0.87;;;10.50;58.90;;;;;;5066973;28;20580;-81
2024/01/15 11:10:42;;;;;;;1.97;1.27;;;10.50;59.70;;;;;;5072392;28;20199;-83
2024/01/15 11:13:15;;;;;;;0.67;0.67;;;10.60;59.70;;;;;;5067303;28;20317;-83
2024/01/15 11:15:57;;;;;;;1.30;1.10;;;10.50;58.80;;;;;;5070605;28;20202;-84
2024/01/15 11:18:28;;;;;;;0.57;0.57;;;10.60;58.90;;;;;;5062687;28;20272;-84
2024/01/15 11:21:26;;;;;;;4.57;1.87;;;10.70;59.40;;;;;;5068977;28;20209;-83
2024/01/15 11:23:57;;;;;;;1.40;1.27;;;10.70;58.80;;;;;;5066843;28;20222;-85
2024/01/15 11:26:36;;;;;;;0.53;0.53;;;10.80;58.70;;;;;;5072711;28;20233;-83
2024/01/15 11:29:08;;;;;;;0.60;0.60;;;10.80;58.50;;;;;;5070163;28;20667;-84
2024/01/15 11:32:00;;;;;;;0.87;0.87;;;10.90;58.60;;;;;;5064793;28;20273;-85
2024/01/15 11:34:51;;;;;;;1.43;1.20;;;11.00;58.90;;;;;;5070246;28;20285;-84
2024/01/15 11:37:20;;;;;;;1.37;1.27;;;11.00;59.10;;;;;;5065126;28;20898;-84
2024/01/15 11:39:49;;;;;;;0.60;0.60;;;11.10;58.90;;;;;;5068682;28;20220;-83
2024/01/15 11:42:18;;;;;;;0.70;0.70;;;11.10;58.70;;;;;;5062485;28;20301;-83
2024/01/15 11:44:49;;;;;;;0.70;0.70;;;11.10;59.20;;;;;;5062366;28;20206;-84
2024/01/15 11:47:23;;;;;;;0.73;0.70;;;11.10;59.20;;;;;;5063533;28;20301;-85
2024/01/15 11:50:00;;;;;;;2.67;1.03;;;11.10;59.10;;;;;;5058910;28;20620;-83
2024/01/15 11:52:34;;;;;;;0.50;0.50;;;11.20;59.20;;;;;;5058719;28;20292;-84
2024/01/15 11:55:11;;;;;;;1.97;1.27;;;11.20;59.00;;;;;;5061343;28;20195;-84
2024/01/15 12:03:36;;;;;;;0.40;0.40;;;11.20;59.10;;;;;;5063651;28;20195;-85
2024/01/15 12:06:07;;;;;;;0.50;0.50;;;11.20;59.20;;;;;;5072794;28;20510;-85
2024/01/15 12:08:36;;;;;;;6.53;0.70;;;11.30;59.20;;;;;;5074224;28;20194;-85
2024/01/15 12:11:10;;;;;;;0.70;0.70;;;11.20;59.30;;;;;;5067098;28;20193;-85
2024/01/15 12:13:39;;;;;;;2.33;1.17;;;11.20;58.60;;;;;;5064369;28;20233;-85
2024/01/15 12:16:09;;;;;;;3.13;0.60;;;11.30;59.00;;;;;;5070078;28;20203;-86
2024/01/15 12:18:46;;;;;;;1.07;0.77;;;11.30;58.60;;;;;;5065865;28;20227;-85
2024/01/15 12:21:15;;;;;;;0.70;0.70;;;11.30;59.00;;;;;;5067110;28;20206;-83
2024/01/15 12:23:48;;;;;;;0.60;0.60;;;11.30;59.50;;;;;;5060279;28;20297;-85
2024/01/15 12:26:17;;;;;;;1.80;1.47;;;11.30;58.50;;;;;;5059872;28;20229;-84
2024/01/15 12:28:45;;;;;;;0.50;0.50;;;11.40;59.00;;;;;;5064724;28;20213;-84
2024/01/15 12:31:15;;;;;;;0.87;0.80;;;11.40;59.20;;;;;;5066157;28;20566;-86
2024/01/15 12:33:44;;;;;;;2.40;1.07;;;11.40;59.40;;;;;;5058151;28;20206;-85
2024/01/15 12:36:14;;;;;;;1.43;1.33;;;11.40;59.40;;;;;;5059997;28;20234;-85
2024/01/15 12:38:45;;;;;;;1.07;1.00;;;11.40;59.10;;;;;;5065146;28;20194;-86
2024/01/15 12:41:13;;;;;;;1.77;1.67;;;11.40;58.80;;;;;;5057109;28;20194;-85
2024/01/15 12:46:35;;;;;;;3.20;1.13;;;11.40;59.20;;;;;;5067565;28;20218;-83
2024/01/15 12:49:05;;;;;;;1.60;0.67;;;11.40;59.50;;;;;;5066661;28;20198;-85
2024/01/15 12:51:36;;;;;;;1.67;1.57;;;11.50;59.70;;;;;;5069194;28;20294;-87
2024/01/15 12:54:04;;;;;;;0.40;0.40;;;11.50;60.00;;;;;;5070835;28;20194;-87
2024/01/15 12:56:33;;;;;;;0.90;0.90;;;11.50;60.00;;;;;;5067072;28;20195;-86
2024/01/15 12:59:01;;;;;;;0.60;0.60;;;11.50;60.00;;;;;;5069102;28;20332;-86
2024/01/15 13:01:32;;;;;;;0.40;0.40;;;11.60;60.20;;;;;;5067708;28;20225;-86
2024/01/15 13:04:00;;;;;;;0.40;0.40;;;11.60;60.90;;;;;;5057444;28;20259;-87
2024/01/15 13:06:29;;;;;;;0.50;0.50;;;11.60;60.00;;;;;;5070032;28;20696;-86
2024/01/15 13:08:58;;;;;;;0.70;0.70;;;11.60;60.00;;;;;;5069234;28;20313;-85
2024/01/15 13:11:28;;;;;;;0.90;0.87;;;11.70;60.40;;;;;;5072390;28;20256;-84
2024/01/15 13:14:10;;;;;;;4.13;1.40;;;11.70;60.20;;;;;;5070392;28;20202;-86
2024/01/15 13:16:41;;;;;;;0.77;0.77;;;11.70;60.20;;;;;;5063402;28;20201;-85
2024/01/15 13:19:10;;;;;;;4.83;1.97;;;11.70;60.20;;;;;;5062175;28;20247;-86
2024/01/15 13:21:39;;;;;;;2.03;1.50;;;11.70;60.40;;;;;;5068727;28;20200;-85
2024/01/15 13:24:08;;;;;;;1.73;1.10;;;11.60;60.20;;;;;;5071669;28;20222;-85
2024/01/15 13:26:37;;;;;;;2.53;0.87;;;11.60;60.30;;;;;;5066958;28;20218;-84
2024/01/15 13:29:06;;;;;;;2.50;2.30;;;11.60;60.30;;;;;;5071389;28;20263;-84
2024/01/15 13:31:34;;;;;;;0.73;0.73;;;11.60;60.30;;;;;;5068810;28;20257;-81
2024/01/15 13:34:07;;;;;;;1.33;1.13;;;11.60;60.30;;;;;;5068265;28;20197;-80
2024/01/15 13:36:35;;;;;;;14.90;1.50;;;11.50;60.50;;;;;;5062553;28;20206;-81
2024/01/15 13:41:46;;;;;;;10.97;2.73;;;11.50;60.60;;;;;;5063509;28;20200;-80
2024/01/15 13:46:58;;;;;;;3.43;1.73;;;11.40;60.50;;;;;;5061809;28;20449;-82
2024/01/15 13:49:28;;;;;;;0.87;0.87;;;11.40;60.60;;;;;;5067172;28;20195;-84
2024/01/15 13:51:57;;;;;;;1.00;0.90;;;11.40;60.60;;;;;;5061446;28;20203;-81
2024/01/15 13:54:25;;;;;;;1.33;1.23;;;11.40;60.80;;;;;;5064846;28;20217;-82